Terminal Aerodrome Forecast
Issued by NWS Central Illinois

Home | Current Version | Previous Version | Text Only | Print | Product List | Glossary On
Versions: 1 2 3 4 5 6 7 8 9 10 11 12 13
000
FTUS43 KILX 200500
TAFSPI
TAF
KSPI 200520Z 2006/2106 15007KT P6SM SCT250
     FM201400 18010KT P6SM SCT250
     FM210000 17006KT P6SM BKN200=

USA.gov is the U.S. government's official web portal to all federal, state and local government web resources and services.